createdAt,value
2019-05-02T00:00:53.729Z,29.77
2019-05-02T00:03:25.166Z,32.20
2019-05-02T00:05:53.994Z,29.93
2019-05-02T00:08:23.211Z,29.90
2019-05-02T00:10:53.912Z,30.63
2019-05-02T00:13:24.214Z,30.77
2019-05-02T00:15:54.218Z,32.53
2019-05-02T00:18:24.755Z,32.13
2019-05-02T00:20:57.095Z,31.97
2019-05-02T00:23:27.914Z,34.13
2019-05-02T00:25:57.212Z,32.23
2019-05-02T00:28:25.940Z,32.57
2019-05-02T00:30:58.026Z,31.30
2019-05-02T00:33:29.334Z,32.20
2019-05-02T00:35:58.693Z,34.73
2019-05-02T00:38:27.240Z,29.80
2019-05-02T00:41:02.193Z,29.63
2019-05-02T00:43:29.065Z,30.50
2019-05-02T00:46:00.967Z,30.90
2019-05-02T00:48:37.620Z,29.97
2019-05-02T00:51:06.587Z,32.43
2019-05-02T00:53:35.234Z,34.33
2019-05-02T00:56:09.127Z,34.10
2019-05-02T00:58:37.459Z,34.10
2019-05-02T01:01:13.368Z,31.67
2019-05-02T01:03:47.083Z,35.30
2019-05-02T01:06:15.469Z,36.83
2019-05-02T01:08:46.011Z,38.13
2019-05-02T01:11:15.164Z,35.53
2019-05-02T01:13:43.752Z,35.17
2019-05-02T01:16:15.223Z,36.80
2019-05-02T01:18:44.674Z,35.20
2019-05-02T01:21:14.268Z,35.40
2019-05-02T01:23:44.349Z,36.60
2019-05-02T01:26:13.530Z,35.47
2019-05-02T01:28:49.199Z,36.07
2019-05-02T01:31:24.168Z,40.97
2019-05-02T01:33:55.854Z,44.60
2019-05-02T01:36:25.999Z,46.57
2019-05-02T01:38:54.608Z,40.17
2019-05-02T01:41:24.050Z,40.57
2019-05-02T01:43:59.634Z,39.00
2019-05-02T01:46:25.213Z,36.80
2019-05-02T01:48:53.720Z,38.03
2019-05-02T01:51:25.101Z,36.03
2019-05-02T01:54:05.003Z,39.07
2019-05-02T01:56:34.929Z,35.63
2019-05-02T01:59:03.598Z,37.03
2019-05-02T02:01:32.200Z,34.73
2019-05-02T02:04:01.062Z,35.63
2019-05-02T02:06:32.363Z,37.63
2019-05-02T02:09:03.377Z,37.73
2019-05-02T02:11:35.668Z,38.33
2019-05-02T02:14:07.440Z,39.73
2019-05-02T02:16:39.299Z,33.33
2019-05-02T02:19:18.025Z,35.47
2019-05-02T02:22:07.615Z,37.53
2019-05-02T02:24:39.571Z,36.50
2019-05-02T02:27:08.445Z,37.47
2019-05-02T02:29:39.044Z,39.87
2019-05-02T02:32:07.782Z,39.80
2019-05-02T02:34:38.043Z,36.03
2019-05-02T02:37:12.967Z,38.20
2019-05-02T02:39:40.018Z,36.17
2019-05-02T02:42:08.883Z,34.83
2019-05-02T02:44:40.033Z,40.60
2019-05-02T02:47:12.173Z,47.40
2019-05-02T02:49:39.523Z,43.70
2019-05-02T02:52:08.407Z,45.03
2019-05-02T02:54:43.114Z,49.70
2019-05-02T02:57:07.248Z,48.37
2019-05-02T02:59:35.865Z,48.87
2019-05-02T03:02:09.919Z,49.37
2019-05-02T03:04:34.845Z,52.00
2019-05-02T03:07:03.513Z,50.03
2019-05-02T03:09:32.094Z,47.97
2019-05-02T03:12:20.802Z,52.97
2019-05-02T03:15:00.155Z,48.50
2019-05-02T03:17:29.543Z,51.33
2019-05-02T03:20:00.958Z,49.03
2019-05-02T03:22:34.909Z,46.80
2019-05-02T03:24:59.415Z,47.17
2019-05-02T03:27:29.863Z,49.53
2019-05-02T03:29:58.432Z,46.37
2019-05-02T03:32:34.452Z,46.13
2019-05-02T03:34:58.353Z,47.97
2019-05-02T03:37:27.213Z,43.93
2019-05-02T03:39:57.778Z,46.60
2019-05-02T03:42:26.966Z,46.07
2019-05-02T03:45:03.601Z,44.70
2019-05-02T03:47:26.288Z,60.93
2019-05-02T03:49:54.922Z,96.50
2019-05-02T03:52:23.612Z,96.83
2019-05-02T03:54:52.775Z,102.63
2019-05-02T03:57:32.148Z,95.07
2019-05-02T03:59:52.741Z,89.60
2019-05-02T04:02:21.894Z,82.90
2019-05-02T04:04:54.330Z,99.13
2019-05-02T04:07:21.307Z,95.23
2019-05-02T04:09:50.936Z,97.50
2019-05-02T04:12:21.863Z,95.30
2019-05-02T04:14:55.630Z,83.47
2019-05-02T04:17:22.195Z,72.27
2019-05-02T04:19:50.844Z,65.77
2019-05-02T04:22:19.465Z,65.00
2019-05-02T04:24:54.499Z,62.07
2019-05-02T04:27:18.488Z,56.13
2019-05-02T04:29:47.090Z,52.37
2019-05-02T04:32:17.423Z,50.10
2019-05-02T04:34:48.921Z,47.83
2019-05-02T04:37:16.240Z,43.23
2019-05-02T04:39:44.881Z,40.77
2019-05-02T04:42:19.508Z,39.50
2019-05-02T04:45:07.636Z,36.93
2019-05-02T04:47:20.785Z,31.03
2019-05-02T04:49:49.090Z,30.90
2019-05-02T04:52:21.061Z,31.63
2019-05-02T04:54:48.812Z,33.30
2019-05-02T04:57:18.642Z,36.23
2019-05-02T04:59:50.098Z,36.30
2019-05-02T05:02:29.855Z,35.67
2019-05-02T05:04:52.532Z,37.33
2019-05-02T05:07:22.850Z,41.67
2019-05-02T05:09:58.210Z,35.00
2019-05-02T05:12:21.653Z,42.63
2019-05-02T05:14:50.235Z,42.93
2019-05-02T05:17:20.013Z,39.07
2019-05-02T05:19:48.922Z,47.93
2019-05-02T05:22:18.539Z,47.03
2019-05-02T05:25:01.090Z,48.50
2019-05-02T05:27:33.509Z,46.83
2019-05-02T05:30:08.472Z,51.73
2019-05-02T05:32:33.745Z,51.60
2019-05-02T05:35:08.968Z,52.40
2019-05-02T05:37:38.067Z,54.77
2019-05-02T05:40:08.366Z,50.80
2019-05-02T05:42:37.913Z,55.13
2019-05-02T05:45:09.738Z,53.27
2019-05-02T05:47:38.806Z,56.03
2019-05-02T05:50:08.264Z,58.37
2019-05-02T05:52:38.736Z,51.67
2019-05-02T05:55:07.862Z,52.93
2019-05-02T05:57:38.483Z,55.23
2019-05-02T06:00:15.994Z,52.57
2019-05-02T06:02:52.717Z,55.27
2019-05-02T06:05:09.866Z,53.53
2019-05-02T06:07:41.918Z,53.87
2019-05-02T06:10:09.923Z,56.30
2019-05-02T06:12:38.683Z,53.33
2019-05-02T06:15:07.691Z,50.10
2019-05-02T06:17:37.837Z,52.77
2019-05-02T06:20:07.604Z,55.87
2019-05-02T06:22:36.858Z,51.73
2019-05-02T06:25:10.215Z,51.77
2019-05-02T06:27:38.986Z,50.70
2019-05-02T06:30:09.584Z,53.30
2019-05-02T06:32:38.149Z,53.17
2019-05-02T06:35:08.792Z,52.53
2019-05-02T06:37:40.480Z,55.07
2019-05-02T06:40:08.398Z,49.30
2019-05-02T06:42:38.402Z,53.97
2019-05-02T06:45:08.790Z,55.63
2019-05-02T06:47:41.404Z,56.17
2019-05-02T06:50:07.888Z,53.90
2019-05-02T06:52:36.374Z,56.20
2019-05-02T06:55:07.258Z,56.63
2019-05-02T06:57:35.808Z,56.57
2019-05-02T07:00:06.927Z,56.97
2019-05-02T07:02:35.549Z,57.30
2019-05-02T07:05:08.754Z,56.23
2019-05-02T07:07:37.705Z,55.43
2019-05-02T07:10:08.109Z,57.63
2019-05-02T07:12:36.741Z,54.37
2019-05-02T07:15:09.775Z,55.87
2019-05-02T07:17:41.762Z,58.33
2019-05-02T07:20:10.815Z,61.73
2019-05-02T07:22:40.859Z,55.47
2019-05-02T07:25:14.330Z,58.80
2019-05-02T07:27:42.912Z,63.60
2019-05-02T07:30:12.211Z,60.63
2019-05-02T07:32:40.750Z,67.17
2019-05-02T07:35:09.666Z,69.03
2019-05-02T07:37:38.220Z,62.67
2019-05-02T07:40:12.022Z,64.23
2019-05-02T07:42:41.768Z,68.93
2019-05-02T07:45:10.801Z,69.80
2019-05-02T07:47:40.258Z,66.77
2019-05-02T07:50:11.948Z,63.87
2019-05-02T07:52:41.359Z,63.17
2019-05-02T07:55:10.821Z,58.23
2019-05-02T07:57:39.352Z,62.77
2019-05-02T08:00:13.493Z,64.00
2019-05-02T08:02:42.189Z,59.63
2019-05-02T08:05:15.541Z,58.63
2019-05-02T08:07:42.723Z,61.33
2019-05-02T08:10:16.475Z,56.20
2019-05-02T08:12:42.226Z,59.37
2019-05-02T08:15:13.064Z,55.17
2019-05-02T08:17:41.158Z,55.13
2019-05-02T08:20:13.759Z,55.90
2019-05-02T08:22:44.146Z,58.57
2019-05-02T08:25:11.601Z,56.13
2019-05-02T08:27:47.683Z,57.17
2019-05-02T08:30:19.568Z,53.57
2019-05-02T08:32:48.145Z,56.57
2019-05-02T08:35:16.732Z,54.33
2019-05-02T08:37:45.262Z,54.63
2019-05-02T08:40:14.318Z,54.90
2019-05-02T08:42:42.871Z,52.47
2019-05-02T08:45:11.680Z,51.60
2019-05-02T08:47:40.149Z,51.53
2019-05-02T08:50:08.981Z,50.77
2019-05-02T08:52:42.101Z,48.90
2019-05-02T08:55:09.736Z,50.90
2019-05-02T08:57:38.366Z,51.73
2019-05-02T09:00:08.400Z,47.10
2019-05-02T09:02:41.620Z,51.93
2019-05-02T09:05:07.241Z,46.03
2019-05-02T09:07:37.090Z,49.10
2019-05-02T09:10:08.162Z,50.80
2019-05-02T09:12:40.831Z,48.77
2019-05-02T09:15:07.279Z,48.53
2019-05-02T09:17:38.678Z,51.87
2019-05-02T09:20:15.154Z,51.67
2019-05-02T09:22:37.195Z,54.40
2019-05-02T09:25:07.591Z,52.43
2019-05-02T09:27:36.148Z,52.43
2019-05-02T09:30:07.766Z,54.73
2019-05-02T09:32:37.213Z,53.03
2019-05-02T09:35:06.582Z,50.57
2019-05-02T09:37:35.115Z,53.10
2019-05-02T09:40:06.800Z,54.00
2019-05-02T09:42:34.890Z,47.80
2019-05-02T09:45:06.134Z,49.77
2019-05-02T09:47:46.980Z,50.43
2019-05-02T09:50:08.232Z,49.63
2019-05-02T09:52:39.763Z,49.17
2019-05-02T09:55:08.235Z,51.90
2019-05-02T09:57:37.069Z,54.90
2019-05-02T10:00:12.692Z,53.07
2019-05-02T10:02:41.863Z,50.73
2019-05-02T10:05:12.493Z,48.33
2019-05-02T10:07:41.889Z,53.13
2019-05-02T10:10:12.593Z,54.33
2019-05-02T10:12:42.681Z,52.30
2019-05-02T10:15:14.719Z,50.83
2019-05-02T10:17:46.788Z,51.33
2019-05-02T10:20:13.643Z,55.37
2019-05-02T10:22:43.796Z,49.97
2019-05-02T10:25:13.281Z,54.87
2019-05-02T10:27:43.856Z,56.10
2019-05-02T10:30:15.688Z,53.17
2019-05-02T10:32:47.228Z,58.57
2019-05-02T10:35:16.390Z,55.53
2019-05-02T10:37:44.913Z,59.97
2019-05-02T10:40:17.160Z,55.67
2019-05-02T10:42:43.897Z,55.37
2019-05-02T10:45:16.576Z,54.13
2019-05-02T10:47:43.097Z,55.50
2019-05-02T10:50:19.327Z,53.80
2019-05-02T10:52:47.836Z,59.87
2019-05-02T10:55:16.699Z,62.40
2019-05-02T10:57:45.263Z,61.87
2019-05-02T11:00:17.016Z,64.13
2019-05-02T11:02:47.205Z,69.10
2019-05-02T11:05:22.546Z,69.80
2019-05-02T11:07:47.546Z,77.00
2019-05-02T11:10:17.357Z,73.43
2019-05-02T11:12:56.010Z,74.10
2019-05-02T11:15:33.674Z,80.87
2019-05-02T11:18:02.528Z,78.63
2019-05-02T11:20:31.880Z,79.13
2019-05-02T11:23:02.217Z,81.67
2019-05-02T11:25:31.908Z,78.60
2019-05-02T11:28:05.466Z,79.53
2019-05-02T11:30:31.981Z,75.77
2019-05-02T11:33:02.872Z,74.97
2019-05-02T11:35:31.840Z,77.30
2019-05-02T11:38:02.340Z,76.63
2019-05-02T11:40:32.132Z,74.30
2019-05-02T11:43:04.923Z,78.37
2019-05-02T11:45:32.369Z,74.50
2019-05-02T11:48:08.887Z,74.77
2019-05-02T11:50:35.216Z,74.13
2019-05-02T11:53:02.885Z,70.73
2019-05-02T11:55:31.921Z,74.43
2019-05-02T11:58:07.834Z,74.20
2019-05-02T12:00:32.325Z,66.93
2019-05-02T12:03:08.781Z,64.00
2019-05-02T12:05:39.384Z,57.97
2019-05-02T12:08:09.480Z,59.90
2019-05-02T12:10:38.267Z,58.50
2019-05-02T12:13:11.077Z,59.63
2019-05-02T12:15:37.210Z,64.97
2019-05-02T12:18:05.881Z,64.47
2019-05-02T12:20:36.739Z,60.17
2019-05-02T12:23:08.997Z,64.53
2019-05-02T12:25:36.383Z,62.90
2019-05-02T12:28:05.103Z,67.70
2019-05-02T12:30:37.704Z,66.80
2019-05-02T12:33:04.410Z,64.20
2019-05-02T12:35:34.116Z,65.07
2019-05-02T12:38:03.468Z,64.67
2019-05-02T12:40:32.570Z,67.13
2019-05-02T12:43:02.441Z,68.07
2019-05-02T12:45:33.679Z,67.80
2019-05-02T12:48:02.523Z,71.90
2019-05-02T12:50:32.194Z,68.67
2019-05-02T12:53:02.807Z,68.33
2019-05-02T12:55:32.601Z,68.37
2019-05-02T12:58:02.982Z,70.43
2019-05-02T13:00:32.063Z,68.80
2019-05-02T13:03:08.227Z,69.70
2019-05-02T13:05:36.785Z,71.03
2019-05-02T13:08:05.446Z,71.60
2019-05-02T13:10:55.757Z,55.37
2019-05-02T13:13:24.533Z,48.87
2019-05-02T13:15:53.004Z,46.00
2019-05-02T13:18:25.393Z,47.60
2019-05-02T13:20:52.794Z,47.97
2019-05-02T13:23:27.305Z,46.43
2019-05-02T13:25:53.380Z,42.63
2019-05-02T13:28:25.522Z,40.83
2019-05-02T13:30:56.674Z,38.73
2019-05-02T13:33:34.397Z,37.80
2019-05-02T13:36:00.144Z,39.60
2019-05-02T13:38:29.659Z,31.37
2019-05-02T13:40:58.369Z,25.17
2019-05-02T13:43:28.553Z,21.70
2019-05-02T13:45:58.761Z,21.43
2019-05-02T13:48:27.349Z,20.07
2019-05-02T13:50:55.989Z,20.57
2019-05-02T13:53:24.622Z,19.60
2019-05-02T13:55:57.869Z,18.07
2019-05-02T13:58:28.849Z,17.17
2019-05-02T14:00:58.507Z,16.67
2019-05-02T14:03:27.057Z,15.40
2019-05-02T14:05:55.652Z,12.57
2019-05-02T14:08:34.243Z,12.77
2019-05-02T14:11:01.954Z,14.87
2019-05-02T14:13:31.611Z,15.13
2019-05-02T14:16:02.165Z,14.30
2019-05-02T14:18:31.604Z,15.80
2019-05-02T14:21:02.678Z,16.10
2019-05-02T14:23:32.115Z,15.87
2019-05-02T14:26:02.002Z,17.43
2019-05-02T14:28:36.134Z,16.27
2019-05-02T14:31:02.309Z,17.07
2019-05-02T14:33:33.006Z,15.13
2019-05-02T14:36:02.235Z,16.53
2019-05-02T14:38:32.111Z,28.97
2019-05-02T14:41:03.202Z,16.60
2019-05-02T14:43:49.779Z,16.30
2019-05-02T14:46:21.978Z,15.90
2019-05-02T14:48:52.301Z,15.93
2019-05-02T14:51:26.110Z,15.93
2019-05-02T14:53:52.596Z,18.10
2019-05-02T14:56:24.992Z,18.23
2019-05-02T14:58:53.617Z,20.07
2019-05-02T15:01:25.964Z,22.60
2019-05-02T15:03:58.444Z,23.50
2019-05-02T15:06:26.106Z,23.53
2019-05-02T15:08:54.710Z,28.47
2019-05-02T15:11:30.487Z,28.00
2019-05-02T15:13:53.723Z,26.40
2019-05-02T15:16:24.940Z,22.90
2019-05-02T15:18:57.171Z,22.00
2019-05-02T15:21:42.322Z,24.63
2019-05-02T15:24:11.915Z,21.97
2019-05-02T15:26:41.831Z,24.43
2019-05-02T15:29:12.291Z,23.40
2019-05-02T15:31:42.373Z,22.93
2019-05-02T15:34:12.521Z,25.70
2019-05-02T15:36:42.292Z,26.23
2019-05-02T15:41:44.901Z,26.07
2019-05-02T15:44:14.142Z,25.13
2019-05-02T15:46:42.613Z,24.33
2019-05-02T15:49:12.280Z,27.30
2019-05-02T15:51:43.660Z,25.17
2019-05-02T15:54:12.521Z,28.47
2019-05-02T15:57:00.299Z,26.90
2019-05-02T15:59:32.595Z,30.13
2019-05-02T16:02:05.113Z,28.60
2019-05-02T16:04:35.383Z,29.37
2019-05-02T16:07:06.913Z,30.50
2019-05-02T16:09:35.947Z,25.37
2019-05-02T16:12:05.455Z,26.77
2019-05-02T16:14:35.938Z,24.30
2019-05-02T16:17:05.443Z,26.60
2019-05-02T16:19:35.647Z,28.00
2019-05-02T16:22:14.764Z,26.60
2019-05-02T16:24:48.784Z,25.90
2019-05-02T16:27:16.347Z,27.27
2019-05-02T16:29:46.050Z,24.60
2019-05-02T16:32:19.209Z,25.13
2019-05-02T16:34:55.688Z,21.10
2019-05-02T16:37:25.794Z,18.57
2019-05-02T16:39:54.330Z,19.23
2019-05-02T16:42:23.031Z,18.07
2019-05-02T16:44:52.215Z,16.73
2019-05-02T16:47:22.012Z,13.03
2019-05-02T16:49:55.222Z,16.90
2019-05-02T16:52:22.154Z,10.67
2019-05-02T16:54:52.622Z,9.33
2019-05-02T16:57:22.226Z,8.60
2019-05-02T16:59:55.908Z,8.43
2019-05-02T17:02:21.844Z,11.93
2019-05-02T17:04:54.271Z,9.43
2019-05-02T17:07:22.486Z,8.73
2019-05-02T17:09:58.652Z,11.10
2019-05-02T17:12:27.225Z,10.57
2019-05-02T17:15:14.102Z,11.10
2019-05-02T17:17:42.784Z,7.07
2019-05-02T17:20:13.029Z,9.87
2019-05-02T17:22:43.898Z,9.23
2019-05-02T17:25:12.324Z,6.47
2019-05-02T17:27:42.311Z,7.30
2019-05-02T17:30:12.211Z,7.40
2019-05-02T17:32:41.530Z,9.33
2019-05-02T17:35:12.344Z,5.10
2019-05-02T17:37:48.818Z,7.57
2019-05-02T17:40:16.819Z,7.83
2019-05-02T17:42:44.523Z,11.17
2019-05-02T17:45:14.708Z,9.23
2019-05-02T17:47:43.329Z,8.30
2019-05-02T17:50:19.522Z,7.07
2019-05-02T17:52:56.137Z,7.17
2019-05-02T17:55:23.003Z,7.70
2019-05-02T17:57:51.684Z,11.17
2019-05-02T18:00:24.691Z,10.47
2019-05-02T18:02:53.431Z,9.83
2019-05-02T18:05:26.603Z,10.60
2019-05-02T18:07:52.660Z,12.37
2019-05-02T18:10:23.001Z,10.33
2019-05-02T18:12:56.761Z,8.50
2019-05-02T18:15:22.813Z,11.20
2019-05-02T18:17:52.334Z,9.93
2019-05-02T18:20:21.946Z,9.97
2019-05-02T18:22:51.998Z,10.37
2019-05-02T18:25:25.235Z,7.50
2019-05-02T18:27:52.443Z,10.47
2019-05-02T18:30:25.550Z,9.23
2019-05-02T18:32:52.857Z,9.67
2019-05-02T18:35:22.007Z,10.23
2019-05-02T18:37:51.817Z,7.30
2019-05-02T18:40:27.696Z,8.37
2019-05-02T18:42:51.966Z,12.40
2019-05-02T18:45:28.473Z,10.00
2019-05-02T18:48:02.310Z,10.40
2019-05-02T18:50:36.792Z,6.20
2019-05-02T18:53:04.446Z,9.73
2019-05-02T18:55:33.044Z,7.80
2019-05-02T18:58:05.249Z,9.43
2019-05-02T19:00:36.151Z,7.70
2019-05-02T19:03:07.528Z,8.90
2019-05-02T19:05:34.160Z,11.53
2019-05-02T19:08:02.755Z,10.70
2019-05-02T19:10:36.967Z,11.57
2019-05-02T19:13:05.880Z,5.57
2019-05-02T19:15:34.560Z,7.50
2019-05-02T19:18:02.741Z,7.17
2019-05-02T19:20:50.470Z,7.97
2019-05-02T19:23:12.338Z,6.73
2019-05-02T19:25:40.545Z,6.43
2019-05-02T19:28:16.551Z,7.70
2019-05-02T19:30:45.495Z,7.97
2019-05-02T19:33:14.151Z,8.17
2019-05-02T19:35:46.807Z,11.20
2019-05-02T19:38:17.111Z,6.77
2019-05-02T19:40:43.973Z,7.87
2019-05-02T19:43:14.728Z,6.57
2019-05-02T19:45:45.703Z,6.87
2019-05-02T19:48:14.097Z,8.47
2019-05-02T19:50:44.086Z,6.47
2019-05-02T19:53:17.938Z,6.83
2019-05-02T19:55:43.493Z,9.90
2019-05-02T19:58:12.239Z,5.93
2019-05-02T20:00:45.773Z,9.20
2019-05-02T20:03:13.682Z,6.43
2019-05-02T20:05:42.777Z,7.47
2019-05-02T20:08:14.672Z,6.43
2019-05-02T20:10:42.420Z,10.17
2019-05-02T20:13:11.974Z,6.23
2019-05-02T20:15:52.256Z,9.90
2019-05-02T20:18:21.039Z,6.83
2019-05-02T20:20:55.413Z,8.80
2019-05-02T20:23:31.652Z,7.40
2019-05-02T20:25:54.568Z,5.73
2019-05-02T20:28:23.119Z,7.33
2019-05-02T20:30:53.348Z,8.53
2019-05-02T20:33:22.221Z,7.70
2019-05-02T20:35:52.700Z,8.13
2019-05-02T20:38:21.911Z,7.63
2019-05-02T20:40:52.261Z,9.73
2019-05-02T20:43:22.608Z,7.60
2019-05-02T20:45:52.727Z,10.20
2019-05-02T20:48:22.783Z,9.63
2019-05-02T20:50:52.053Z,11.67
2019-05-02T20:53:28.810Z,6.17
2019-05-02T20:55:52.389Z,12.97
2019-05-02T20:58:22.169Z,8.77
2019-05-02T21:01:04.984Z,8.63
2019-05-02T21:03:21.169Z,10.07
2019-05-02T21:05:54.393Z,7.70
2019-05-02T21:08:43.259Z,8.40
2019-05-02T21:11:12.434Z,8.57
2019-05-02T21:13:41.865Z,6.40
2019-05-02T21:16:12.086Z,6.50
2019-05-02T21:18:42.288Z,6.27
2019-05-02T21:21:12.628Z,8.37
2019-05-02T21:23:46.633Z,5.97
2019-05-02T21:26:11.825Z,8.03
2019-05-02T21:28:42.426Z,7.53
2019-05-02T21:31:12.138Z,9.83
2019-05-02T21:33:42.707Z,4.40
2019-05-02T21:36:12.061Z,7.27
2019-05-02T21:38:42.729Z,5.33
2019-05-02T21:41:12.010Z,8.60
2019-05-02T21:43:42.494Z,8.67
2019-05-02T21:46:11.257Z,8.43
2019-05-02T21:48:41.841Z,5.73
2019-05-02T21:51:12.107Z,8.47
2019-05-02T21:53:56.186Z,8.67
2019-05-02T21:56:26.209Z,8.37
2019-05-02T21:59:08.110Z,11.80
2019-05-02T22:01:43.853Z,9.47
2019-05-02T22:04:13.113Z,11.27
2019-05-02T22:06:42.730Z,13.40
2019-05-02T22:09:12.299Z,10.70
2019-05-02T22:11:43.018Z,7.67
2019-05-02T22:14:13.302Z,8.77
2019-05-02T22:16:42.413Z,10.10
2019-05-02T22:19:11.046Z,11.10
2019-05-02T22:21:39.773Z,10.87
2019-05-02T22:24:11.753Z,10.90
2019-05-02T22:26:39.082Z,15.20
2019-05-02T22:29:07.758Z,13.83
2019-05-02T22:31:36.315Z,11.63
2019-05-02T22:34:06.566Z,11.37
2019-05-02T22:36:35.121Z,12.67
2019-05-02T22:39:12.562Z,13.07
2019-05-02T22:41:41.962Z,11.77
2019-05-02T22:44:12.340Z,10.20
2019-05-02T22:46:43.178Z,15.43
2019-05-02T22:49:14.552Z,10.40
2019-05-02T22:51:43.447Z,11.50
2019-05-02T22:54:24.016Z,12.27
2019-05-02T22:56:42.748Z,13.87
2019-05-02T22:59:11.307Z,11.00
2019-05-02T23:01:41.946Z,13.90
2019-05-02T23:04:10.178Z,9.83
2019-05-02T23:06:38.748Z,10.57
2019-05-02T23:09:08.185Z,13.70
2019-05-02T23:11:36.949Z,10.30
2019-05-02T23:14:06.841Z,8.93
2019-05-02T23:16:35.421Z,11.07
2019-05-02T23:19:04.090Z,9.33
2019-05-02T23:21:32.718Z,14.20
2019-05-02T23:24:03.013Z,13.53
2019-05-02T23:26:44.843Z,9.57
2019-05-02T23:29:15.574Z,14.73
2019-05-02T23:31:44.150Z,14.43
2019-05-02T23:34:12.703Z,12.33
2019-05-02T23:36:41.605Z,15.00
2019-05-02T23:39:12.296Z,11.70
2019-05-02T23:41:42.119Z,14.40
2019-05-02T23:44:12.265Z,12.83
2019-05-02T23:46:42.396Z,9.40
2019-05-02T23:49:12.771Z,10.33
2019-05-02T23:51:42.720Z,13.40
2019-05-02T23:54:12.819Z,17.40
2019-05-02T23:56:42.968Z,8.97
2019-05-02T23:59:12.191Z,11.27
